Time;durP1;ratioP1;P1;durP2;ratioP2;P2;SDS_P1;SDS_P2;PMS_P1;PMS_P2;Temp;Humidity;BMP_temperature;BMP_pressure;BME280_temperature;BME280_humidity;BME280_pressure;Samples;Min_cycle;Max_cycle;Signal;HPM_P1;HPM_P2
2022/01/27 00:04:07;;;;;;;11.93;7.38;;;2.80;1.00;;;;;;5044178;28;20206;-75
2022/01/27 00:06:43;;;;;;;14.93;8.07;;;2.70;1.00;;;;;;5041599;28;20170;-75
2022/01/27 00:10:06;;;;;;;15.02;7.82;;;2.70;1.00;;;;;;5055369;28;20179;-75
2022/01/27 00:12:32;;;;;;;11.82;5.95;;;2.70;1.00;;;;;;5073213;28;20167;-75
2022/01/27 00:15:09;;;;;;;18.10;7.90;;;2.80;1.00;;;;;;5063312;28;20343;-75
2022/01/27 00:17:43;;;;;;;17.88;9.10;;;2.80;1.00;;;;;;5053056;28;20429;-74
2022/01/27 00:20:13;;;;;;;15.18;7.82;;;2.70;1.00;;;;;;5053457;28;20685;-74
2022/01/27 00:22:39;;;;;;;13.57;7.30;;;2.70;1.00;;;;;;5073230;28;20254;-75
2022/01/27 00:25:08;;;;;;;15.98;7.53;;;2.70;1.00;;;;;;5060274;28;20206;-75
2022/01/27 00:27:38;;;;;;;12.50;7.18;;;2.80;1.00;;;;;;5060840;28;20174;-74
2022/01/27 00:30:07;;;;;;;18.75;6.28;;;2.80;1.00;;;;;;5065180;28;20537;-74
2022/01/27 00:32:43;;;;;;;15.60;7.53;;;2.70;1.00;;;;;;5056764;28;20773;-75
2022/01/27 00:35:09;;;;;;;14.48;6.25;;;2.70;1.00;;;;;;5055241;28;20583;-75
2022/01/27 00:37:36;;;;;;;15.53;7.73;;;2.70;1.00;;;;;;5065123;28;20182;-75
2022/01/27 00:40:03;;;;;;;19.10;8.25;;;2.70;1.00;;;;;;5068219;28;20418;-74
2022/01/27 00:42:32;;;;;;;13.05;7.60;;;2.70;1.00;;;;;;5065767;28;20175;-74
2022/01/27 00:45:08;;;;;;;13.60;6.82;;;2.70;1.00;;;;;;5063114;28;20265;-75
2022/01/27 00:47:35;;;;;;;16.10;8.32;;;2.70;1.00;;;;;;5058484;28;20510;-75
2022/01/27 00:50:08;;;;;;;20.65;8.63;;;2.70;1.00;;;;;;5061066;28;20179;-74
2022/01/27 00:52:42;;;;;;;17.05;8.73;;;2.50;1.00;;;;;;5064578;28;20183;-75
2022/01/27 00:55:15;;;;;;;21.38;7.72;;;2.60;1.00;;;;;;5069814;28;20199;-75
2022/01/27 01:00:55;;;;;;;13.05;8.10;;;2.60;1.00;;;;;;5034896;28;20188;-75
2022/01/27 01:03:32;;;;;;;18.05;7.93;;;2.60;1.00;;;;;;5014556;28;20196;-75
2022/01/27 01:14:41;;;;;;;16.33;8.45;;;2.60;1.00;;;;;;5050603;28;20293;-75
2022/01/27 01:19:51;;;;;;;18.65;9.45;;;2.60;1.00;;;;;;5051754;28;20180;-75
2022/01/27 01:33:20;;;;;;;16.20;8.30;;;2.70;1.00;;;;;;5033688;28;20195;-75
2022/01/27 01:36:01;;;;;;;21.35;9.32;;;2.60;1.00;;;;;;5022990;28;20688;-75
2022/01/27 01:38:30;;;;;;;17.00;9.00;;;2.60;1.00;;;;;;5054411;28;20186;-74
2022/01/27 01:41:08;;;;;;;14.68;7.88;;;2.60;1.00;;;;;;5065691;28;20619;-75
2022/01/27 01:43:43;;;;;;;16.25;8.48;;;2.60;1.00;;;;;;5068592;28;20222;-75
2022/01/27 01:46:13;;;;;;;17.80;8.63;;;2.60;1.00;;;;;;5055221;28;20163;-75
2022/01/27 01:48:39;;;;;;;15.10;7.55;;;2.60;1.00;;;;;;5055219;28;20655;-75
2022/01/27 01:51:22;;;;;;;16.03;8.40;;;2.70;1.00;;;;;;5068533;28;20175;-74
2022/01/27 01:53:48;;;;;;;23.60;8.32;;;2.70;1.00;;;;;;5052339;28;20186;-75
2022/01/27 01:56:20;;;;;;;15.47;8.30;;;2.60;1.00;;;;;;5061413;28;20180;-75
2022/01/27 01:58:50;;;;;;;11.55;7.30;;;2.60;1.00;;;;;;5065942;28;20583;-75
2022/01/27 02:01:17;;;;;;;16.80;8.90;;;2.60;1.00;;;;;;5055233;28;20180;-75
2022/01/27 02:03:43;;;;;;;15.70;8.50;;;2.70;1.00;;;;;;5064474;28;20278;-75
2022/01/27 02:06:17;;;;;;;16.80;8.43;;;2.60;1.00;;;;;;5067080;28;20516;-74
2022/01/27 02:19:46;;;;;;;16.88;7.68;;;;;;;;;;5064285;28;20189;-75
2022/01/27 02:22:12;;;;;;;8.48;5.70;;;2.70;1.00;;;;;;5061765;28;20202;-75
2022/01/27 02:24:44;;;;;;;14.10;8.43;;;2.70;1.00;;;;;;5065773;28;20251;-74
2022/01/27 02:27:09;;;;;;;16.13;9.80;;;2.60;1.00;;;;;;5057587;28;20252;-74
2022/01/27 02:29:38;;;;;;;18.33;8.40;;;2.60;1.00;;;;;;5064619;28;20635;-75
2022/01/27 02:32:04;;;;;;;18.77;8.80;;;2.60;1.00;;;;;;5059144;28;20199;-74
2022/01/27 02:34:30;;;;;;;20.63;9.13;;;2.60;1.00;;;;;;5064712;28;20234;-75
2022/01/27 02:36:56;;;;;;;19.37;9.00;;;2.60;1.00;;;;;;5060762;28;20183;-74
2022/01/27 02:39:21;;;;;;;17.90;9.67;;;2.50;1.00;;;;;;5064204;28;20175;-75
2022/01/27 02:42:33;;;;;;;18.70;9.93;;;2.40;1.00;;;;;;5054384;28;20528;-75
2022/01/27 02:45:26;;;;;;;22.65;10.10;;;2.40;1.00;;;;;;5051320;28;20194;-75
2022/01/27 02:47:52;;;;;;;19.55;10.23;;;2.50;1.00;;;;;;5067052;28;20263;-75
2022/01/27 02:50:20;;;;;;;17.13;8.63;;;2.50;1.00;;;;;;5067054;28;20650;-75
2022/01/27 02:52:45;;;;;;;23.95;10.27;;;2.50;1.00;;;;;;5067813;28;20184;-75
2022/01/27 02:55:11;;;;;;;14.70;7.00;;;2.50;1.00;;;;;;5054133;28;20187;-75
2022/01/27 02:57:38;;;;;;;20.08;7.53;;;2.50;1.00;;;;;;5053903;28;20199;-74
2022/01/27 03:00:05;;;;;;;15.75;8.10;;;2.50;1.00;;;;;;5072953;28;20175;-74
2022/01/27 03:02:31;;;;;;;25.45;9.77;;;2.50;1.00;;;;;;5060016;28;20266;-74
2022/01/27 03:05:02;;;;;;;17.97;8.50;;;2.50;1.00;;;;;;5066901;28;20269;-75
2022/01/27 03:07:28;;;;;;;18.05;8.05;;;2.60;1.00;;;;;;5056784;28;20258;-75
2022/01/27 03:10:07;;;;;;;22.87;8.73;;;2.60;1.00;;;;;;5062412;28;20262;-75
2022/01/27 03:12:38;;;;;;;27.13;10.88;;;2.60;1.00;;;;;;5060175;28;20655;-75
2022/01/27 03:15:10;;;;;;;19.13;10.02;;;2.60;1.00;;;;;;5072976;28;20286;-74
2022/01/27 03:17:49;;;;;;;19.17;9.35;;;2.60;1.00;;;;;;5060441;28;20267;-75
2022/01/27 03:20:32;;;;;;;20.90;9.00;;;2.60;1.00;;;;;;5060548;28;20175;-75
2022/01/27 03:23:02;;;;;;;17.42;9.27;;;2.60;1.00;;;;;;5064530;28;20248;-75
2022/01/27 03:25:38;;;;;;;19.15;10.02;;;2.60;1.00;;;;;;5067060;28;20180;-75
2022/01/27 03:28:07;;;;;;;18.48;10.27;;;2.60;1.00;;;;;;5053289;28;20252;-75
2022/01/27 03:30:38;;;;;;;19.00;10.27;;;2.60;1.00;;;;;;5072638;28;20183;-75
2022/01/27 03:33:08;;;;;;;23.92;11.68;;;2.70;1.00;;;;;;5060904;28;20803;-75
2022/01/27 03:35:33;;;;;;;21.08;11.18;;;2.70;1.00;;;;;;5047273;28;20546;-75
2022/01/27 03:37:59;;;;;;;23.87;10.73;;;2.70;1.00;;;;;;5058194;28;20186;-75
2022/01/27 03:40:24;;;;;;;24.93;12.03;;;2.60;1.00;;;;;;5073692;28;20246;-75
2022/01/27 03:43:02;;;;;;;17.80;9.17;;;;;;;;;;5060064;28;20215;-74
2022/01/27 03:45:32;;;;;;;18.35;8.95;;;2.60;1.00;;;;;;5041892;28;20167;-74
2022/01/27 03:47:59;;;;;;;19.58;9.95;;;2.60;1.00;;;;;;5055185;28;20182;-74
2022/01/27 03:50:49;;;;;;;23.40;11.13;;;2.50;1.00;;;;;;5073647;28;20660;-75
2022/01/27 03:53:15;;;;;;;22.08;10.63;;;2.50;1.00;;;;;;5060201;28;20187;-74
2022/01/27 03:55:42;;;;;;;19.03;9.70;;;2.50;1.00;;;;;;5061055;28;20195;-74
2022/01/27 03:58:08;;;;;;;26.90;10.55;;;2.50;1.00;;;;;;5066704;28;20175;-74
2022/01/27 04:00:35;;;;;;;20.75;10.93;;;2.50;1.00;;;;;;5055685;28;20203;-75
2022/01/27 04:05:48;;;;;;;29.03;12.00;;;2.50;1.00;;;;;;5065553;28;20215;-75
2022/01/27 04:08:14;;;;;;;21.85;10.48;;;2.50;1.00;;;;;;5053799;28;20242;-75
2022/01/27 04:10:44;;;;;;;26.50;11.27;;;2.50;1.00;;;;;;5077171;28;20163;-75
2022/01/27 04:13:19;;;;;;;18.92;10.23;;;2.40;1.00;;;;;;5059005;28;20226;-75
2022/01/27 04:15:50;;;;;;;23.35;10.75;;;2.40;1.00;;;;;;5072760;28;20576;-74
2022/01/27 04:18:15;;;;;;;21.25;9.80;;;2.40;1.00;;;;;;5068312;28;20496;-75
2022/01/27 04:20:42;;;;;;;22.90;11.27;;;2.40;1.00;;;;;;5076999;28;20183;-75
2022/01/27 04:23:09;;;;;;;19.67;9.43;;;2.40;1.00;;;;;;5066938;28;20330;-75
2022/01/27 04:25:37;;;;;;;23.23;10.77;;;2.40;1.00;;;;;;5070226;28;20184;-74
2022/01/27 04:28:07;;;;;;;32.85;11.90;;;2.40;1.00;;;;;;5056684;28;20178;-75
2022/01/27 04:31:20;;;;;;;20.48;10.05;;;2.30;1.00;;;;;;5061992;28;20573;-75
2022/01/27 04:33:49;;;;;;;21.33;10.40;;;2.40;1.00;;;;;;5058026;28;20199;-75
2022/01/27 04:36:26;;;;;;;20.95;9.77;;;2.40;1.00;;;;;;5064386;28;20233;-74
2022/01/27 04:41:26;;;;;;;17.67;9.83;;;2.30;1.00;;;;;;5057531;28;20160;-75
2022/01/27 04:44:33;;;;;;;19.13;9.25;;;2.40;1.00;;;;;;5068293;28;20298;-75
2022/01/27 04:47:05;;;;;;;22.00;10.25;;;2.40;1.00;;;;;;5046826;28;20191;-74
2022/01/27 04:49:32;;;;;;;22.25;9.40;;;2.30;1.00;;;;;;5056583;28;20148;-75
2022/01/27 04:52:02;;;;;;;19.13;8.65;;;2.40;1.00;;;;;;5063197;28;20266;-75
2022/01/27 04:54:34;;;;;;;20.67;10.50;;;2.40;1.00;;;;;;5056906;28;20184;-74
2022/01/27 04:57:03;;;;;;;19.63;9.50;;;2.30;1.00;;;;;;5055926;28;20191;-74
2022/01/27 04:59:41;;;;;;;20.95;10.18;;;4.20;1.00;;;;;;5056254;28;20168;-75
2022/01/27 05:02:15;;;;;;;17.30;8.77;;;2.30;1.00;;;;;;5056251;28;20168;-75
2022/01/27 05:04:43;;;;;;;21.10;10.10;;;2.30;1.00;;;;;;5056208;28;20184;-75
2022/01/27 05:07:09;;;;;;;26.48;10.70;;;2.30;1.00;;;;;;5055839;28;20245;-75
2022/01/27 05:09:36;;;;;;;19.63;8.88;;;2.40;1.00;;;;;;5076013;28;20218;-75
2022/01/27 05:12:16;;;;;;;20.17;9.52;;;2.30;1.00;;;;;;5071378;28;20176;-75
2022/01/27 05:14:44;;;;;;;26.52;10.20;;;2.30;1.00;;;;;;5036168;28;20188;-75
2022/01/27 05:17:09;;;;;;;19.98;8.68;;;2.30;1.00;;;;;;5051021;28;20195;-75
2022/01/27 05:19:35;;;;;;;19.67;9.93;;;2.30;1.00;;;;;;5062332;28;20225;-75
2022/01/27 05:22:01;;;;;;;14.60;7.03;;;2.30;1.00;;;;;;5068662;28;20187;-75
2022/01/27 05:24:27;;;;;;;19.53;8.20;;;;;;;;;;5056653;28;20262;-75
2022/01/27 05:26:53;;;;;;;17.42;8.40;;;;;;;;;;5067288;28;20426;-75
2022/01/27 05:29:19;;;;;;;21.43;8.50;;;2.30;1.00;;;;;;5055910;28;20673;-75
2022/01/27 05:31:45;;;;;;;15.07;6.33;;;2.30;1.00;;;;;;5073155;28;20502;-75
2022/01/27 05:34:11;;;;;;;12.57;6.60;;;;;;;;;;5068926;28;20498;-75
2022/01/27 05:36:37;;;;;;;13.95;7.03;;;;;;;;;;5072843;28;20410;-77
2022/01/27 05:39:03;;;;;;;19.85;8.57;;;2.40;1.00;;;;;;5075094;28;20217;-75
2022/01/27 05:41:29;;;;;;;21.25;9.27;;;;;;;;;;5074590;28;20179;-75
2022/01/27 05:43:55;;;;;;;21.70;8.57;;;2.40;1.00;;;;;;5074634;28;20178;-75
2022/01/27 05:46:20;;;;;;;15.50;9.00;;;2.40;1.00;;;;;;5072856;28;20412;-75
2022/01/27 05:48:46;;;;;;;16.83;7.07;;;2.40;1.00;;;;;;5074520;28;20538;-75
2022/01/27 05:51:13;;;;;;;18.10;8.90;;;2.40;1.00;;;;;;5065134;28;20186;-75
2022/01/27 05:53:39;;;;;;;13.75;7.45;;;2.50;1.00;;;;;;5065746;28;20194;-75
2022/01/27 05:56:05;;;;;;;15.97;9.23;;;2.50;1.00;;;;;;5060505;28;20203;-75
2022/01/27 05:58:31;;;;;;;17.65;7.10;;;2.40;1.00;;;;;;5074425;28;20172;-75
2022/01/27 06:01:02;;;;;;;17.43;8.03;;;2.50;1.00;;;;;;5064099;28;20565;-74
2022/01/27 06:03:28;;;;;;;16.02;8.15;;;2.50;1.00;;;;;;5074002;28;20224;-74
2022/01/27 06:05:53;;;;;;;17.43;7.90;;;2.50;1.00;;;;;;5073705;28;20175;-75
2022/01/27 06:08:19;;;;;;;14.70;7.43;;;2.50;1.00;;;;;;5061163;28;20600;-75
2022/01/27 06:10:50;;;;;;;16.50;6.40;;;2.50;1.00;;;;;;5056574;28;20221;-75
2022/01/27 06:13:16;;;;;;;11.10;6.50;;;2.50;1.00;;;;;;5069168;28;20530;-75
2022/01/27 06:15:41;;;;;;;14.83;5.57;;;2.50;1.00;;;;;;5067574;28;20202;-75
2022/01/27 06:18:07;;;;;;;16.47;7.77;;;2.50;1.00;;;;;;5057597;28;20179;-75
2022/01/27 06:20:33;;;;;;;16.37;7.17;;;2.50;1.00;;;;;;5056573;28;20775;-75
2022/01/27 06:23:02;;;;;;;16.97;8.03;;;2.50;1.00;;;;;;5065646;28;20178;-75
2022/01/27 06:25:30;;;;;;;15.05;7.30;;;2.50;1.00;;;;;;5073980;28;20253;-74
2022/01/27 06:27:56;;;;;;;15.00;7.95;;;2.60;1.00;;;;;;5062165;28;20191;-75
2022/01/27 06:30:22;;;;;;;20.58;8.25;;;2.60;1.00;;;;;;5064460;28;20581;-73
2022/01/27 06:32:47;;;;;;;13.77;6.97;;;2.60;1.00;;;;;;5077043;28;20188;-75
2022/01/27 06:35:13;;;;;;;16.33;7.27;;;2.60;1.00;;;;;;5056842;28;20260;-76
2022/01/27 06:37:41;;;;;;;14.57;7.47;;;2.60;1.00;;;;;;5063868;28;20623;-75
2022/01/27 06:40:10;;;;;;;14.20;7.55;;;2.70;1.00;;;;;;5057591;28;20429;-75
2022/01/27 06:42:36;;;;;;;9.68;5.43;;;2.70;1.00;;;;;;5062337;28;20258;-75
2022/01/27 06:45:04;;;;;;;11.43;6.40;;;2.70;1.00;;;;;;5070723;28;20175;-75
2022/01/27 06:47:29;;;;;;;12.18;5.57;;;2.70;1.00;;;;;;5065203;28;20284;-74
2022/01/27 06:49:55;;;;;;;13.40;5.40;;;2.70;1.00;;;;;;5063884;28;20262;-74
2022/01/27 06:52:22;;;;;;;14.60;5.53;;;2.80;1.00;;;;;;5066196;28;20233;-75
2022/01/27 06:54:52;;;;;;;14.85;7.35;;;2.70;1.00;;;;;;5064896;28;20201;-74
2022/01/27 06:57:18;;;;;;;12.27;6.95;;;;;;;;;;5056856;28;20163;-75
2022/01/27 06:59:43;;;;;;;12.50;7.10;;;2.60;1.00;;;;;;5060459;28;20573;-75
2022/01/27 07:02:09;;;;;;;16.33;7.40;;;2.70;1.00;;;;;;5061288;28;20441;-75
2022/01/27 07:04:35;;;;;;;10.90;5.43;;;2.70;1.00;;;;;;5064371;28;20241;-75
2022/01/27 07:07:00;;;;;;;13.00;4.30;;;2.70;1.00;;;;;;5062442;28;20233;-75
2022/01/27 07:09:26;;;;;;;19.00;8.13;;;;;;;;;;5058136;28;20174;-74
2022/01/27 07:11:52;;;;;;;15.13;8.10;;;2.70;1.00;;;;;;5068424;28;20542;-74
2022/01/27 07:14:18;;;;;;;11.07;6.63;;;2.60;1.00;;;;;;5070758;28;20195;-75
2022/01/27 07:16:44;;;;;;;21.17;6.60;;;2.60;1.00;;;;;;5063596;28;20167;-75
2022/01/27 07:19:10;;;;;;;21.40;7.67;;;2.60;1.00;;;;;;5044013;28;20194;-75
2022/01/27 07:21:35;;;;;;;15.87;8.63;;;2.60;1.00;;;;;;5052010;28;20184;-75
2022/01/27 07:24:01;;;;;;;13.47;6.00;;;2.50;1.00;;;;;;5056766;28;20175;-75
2022/01/27 07:26:27;;;;;;;13.60;6.13;;;2.50;1.00;;;;;;5062370;28;20171;-74
2022/01/27 07:28:54;;;;;;;8.70;5.73;;;2.50;1.00;;;;;;5056400;28;20409;-74
2022/01/27 07:31:20;;;;;;;16.15;6.45;;;;;;;;;;5056166;28;20306;-75
2022/01/27 07:33:48;;;;;;;18.23;8.43;;;2.40;1.00;;;;;;5056801;28;20665;-75
2022/01/27 07:36:15;;;;;;;20.02;9.50;;;2.30;1.00;;;;;;5056561;28;20179;-75
2022/01/27 07:38:43;;;;;;;15.98;7.55;;;2.30;1.00;;;;;;5053702;28;20252;-75
2022/01/27 07:41:12;;;;;;;13.07;7.55;;;2.10;1.00;;;;;;5059921;28;20174;-74
2022/01/27 07:43:40;;;;;;;16.67;8.10;;;2.20;1.00;;;;;;5056047;28;20199;-74
2022/01/27 07:46:06;;;;;;;21.60;9.15;;;2.20;1.00;;;;;;5060513;28;20183;-75
2022/01/27 07:48:32;;;;;;;17.08;8.73;;;2.20;1.00;;;;;;5054755;28;20186;-74
2022/01/27 07:50:58;;;;;;;16.98;7.70;;;;;;;;;;5062109;28;20184;-74
2022/01/27 07:53:24;;;;;;;16.42;8.27;;;2.30;1.00;;;;;;5066682;28;20258;-74
2022/01/27 07:55:49;;;;;;;18.90;7.60;;;2.30;1.00;;;;;;5052833;28;20289;-75
2022/01/27 07:58:15;;;;;;;20.03;8.23;;;2.30;1.00;;;;;;5052542;28;20509;-75
2022/01/27 08:00:41;;;;;;;17.87;8.10;;;2.30;1.00;;;;;;5051178;28;20183;-75
2022/01/27 08:03:06;;;;;;;16.03;8.10;;;2.40;1.00;;;;;;5065969;28;20294;-75
2022/01/27 08:05:32;;;;;;;19.23;9.70;;;2.40;1.00;;;;;;5070588;28;20178;-75
2022/01/27 08:07:58;;;;;;;17.13;8.40;;;2.30;1.00;;;;;;5061085;28;20531;-75
2022/01/27 08:10:25;;;;;;;14.52;7.63;;;2.30;1.00;;;;;;5050867;28;20171;-74
2022/01/27 08:12:51;;;;;;;23.67;9.73;;;;;;;;;;5057200;28;20172;-74
2022/01/27 08:15:19;;;;;;;19.87;9.10;;;;;;;;;;5064312;28;20210;-74
2022/01/27 08:17:46;;;;;;;21.48;9.77;;;2.40;1.00;;;;;;5057195;28;20430;-74
2022/01/27 08:20:11;;;;;;;22.20;9.77;;;2.40;1.00;;;;;;5042823;28;20196;-74
2022/01/27 08:22:38;;;;;;;22.53;9.20;;;2.40;1.00;;;;;;5055595;28;20187;-75
2022/01/27 08:25:05;;;;;;;18.83;9.50;;;2.40;1.00;;;;;;5066805;28;20995;-74
2022/01/27 08:27:31;;;;;;;21.15;9.98;;;2.40;1.00;;;;;;5057632;28;20321;-74
2022/01/27 08:30:04;;;;;;;20.98;9.90;;;2.40;1.00;;;;;;5055413;28;20207;-74
2022/01/27 08:32:46;;;;;;;20.45;10.27;;;2.30;1.00;;;;;;5054968;28;20182;-74
2022/01/27 08:35:13;;;;;;;21.63;9.50;;;2.30;1.00;;;;;;5071100;28;20223;-74
2022/01/27 08:37:39;;;;;;;24.50;11.05;;;;;;;;;;5043686;28;20638;-75
2022/01/27 08:40:07;;;;;;;19.15;9.18;;;2.30;1.00;;;;;;5055554;28;20527;-74
2022/01/27 08:42:32;;;;;;;24.50;9.55;;;2.30;1.00;;;;;;5061390;28;20175;-75
2022/01/27 08:44:58;;;;;;;18.33;9.63;;;2.30;1.00;;;;;;5058700;28;20194;-75
2022/01/27 08:47:23;;;;;;;20.77;10.70;;;2.30;1.00;;;;;;5057827;28;20183;-75
2022/01/27 08:49:49;;;;;;;26.60;11.20;;;2.30;1.00;;;;;;5058817;28;20673;-75
2022/01/27 08:52:15;;;;;;;16.67;9.40;;;2.20;1.00;;;;;;5062422;28;20237;-75
2022/01/27 08:54:42;;;;;;;22.25;10.27;;;2.20;1.00;;;;;;5056771;28;20252;-75
2022/01/27 08:57:08;;;;;;;21.63;7.10;;;2.30;1.00;;;;;;5051982;28;20179;-75
2022/01/27 08:59:34;;;;;;;23.33;10.70;;;2.30;1.00;;;;;;5058148;28;20167;-75
2022/01/27 09:02:00;;;;;;;23.50;10.93;;;2.30;1.00;;;;;;5071034;28;20409;-75
2022/01/27 09:04:25;;;;;;;21.33;9.63;;;2.20;1.00;;;;;;5063346;28;20729;-75
2022/01/27 09:06:51;;;;;;;19.57;10.13;;;2.20;1.00;;;;;;5053025;28;20275;-74
2022/01/27 09:09:17;;;;;;;22.87;9.97;;;2.20;1.00;;;;;;5063415;28;20190;-75
2022/01/27 09:11:46;;;;;;;21.07;11.27;;;2.40;1.00;;;;;;5069294;28;20191;-75
2022/01/27 09:14:13;;;;;;;19.75;10.60;;;2.30;1.00;;;;;;5068787;28;20209;-75
2022/01/27 09:16:39;;;;;;;19.80;10.30;;;;;;;;;;5067876;28;20183;-75
2022/01/27 09:19:05;;;;;;;25.23;10.73;;;2.50;1.00;;;;;;5063291;28;20219;-75
2022/01/27 09:21:41;;;;;;;20.73;10.30;;;2.50;1.00;;;;;;5057071;28;20191;-75
2022/01/27 09:24:07;;;;;;;25.33;9.70;;;2.40;1.00;;;;;;5062823;28;20164;-75
2022/01/27 09:26:43;;;;;;;20.10;10.40;;;2.40;1.00;;;;;;5059038;28;20306;-76
2022/01/27 09:29:09;;;;;;;20.30;11.00;;;;;;;;;;5056668;28;20171;-75
2022/01/27 09:31:36;;;;;;;16.42;7.38;;;2.50;1.00;;;;;;5054999;28;20671;-75
2022/01/27 09:34:02;;;;;;;15.30;9.10;;;2.50;1.00;;;;;;5063953;28;20189;-75
2022/01/27 09:36:28;;;;;;;27.77;10.43;;;2.50;1.00;;;;;;5066172;28;20175;-74
2022/01/27 09:38:54;;;;;;;19.90;10.40;;;;;;;;;;5067548;28;20474;-75
2022/01/27 09:41:20;;;;;;;15.77;9.05;;;;;;;;;;5062845;28;20179;-75
2022/01/27 09:43:48;;;;;;;18.83;7.63;;;2.50;1.00;;;;;;5059263;28;20176;-75
2022/01/27 09:46:18;;;;;;;19.80;9.38;;;2.50;1.00;;;;;;5060197;28;20241;-75
2022/01/27 09:48:47;;;;;;;19.05;9.10;;;2.50;1.00;;;;;;5064413;28;20495;-75
2022/01/27 09:53:50;;;;;;;30.58;9.65;;;2.40;1.00;;;;;;5058726;28;20254;-75
2022/01/27 09:56:16;;;;;;;23.65;9.30;;;2.40;1.00;;;;;;5059255;28;20680;-74
2022/01/27 09:58:41;;;;;;;15.93;8.10;;;2.40;1.00;;;;;;5067113;28;20175;-74
2022/01/27 10:01:07;;;;;;;18.40;8.60;;;2.40;1.00;;;;;;5060684;28;20633;-74
2022/01/27 10:03:33;;;;;;;13.57;6.97;;;2.40;1.00;;;;;;5059335;28;20639;-75
2022/01/27 10:06:15;;;;;;;20.08;7.20;;;2.40;1.00;;;;;;5059068;28;20214;-74
2022/01/27 10:08:42;;;;;;;11.35;5.88;;;2.40;1.00;;;;;;5053007;28;20183;-74
2022/01/27 10:11:18;;;;;;;15.55;8.43;;;2.30;1.00;;;;;;5063082;28;20190;-73
2022/01/27 10:13:46;;;;;;;20.52;8.98;;;2.30;1.00;;;;;;5061808;28;20190;-75
2022/01/27 10:16:44;;;;;;;13.07;6.88;;;2.40;1.00;;;;;;5057785;28;20678;-74
2022/01/27 10:19:11;;;;;;;14.93;8.70;;;2.40;1.00;;;;;;5061564;28;20195;-73
2022/01/27 10:21:38;;;;;;;17.67;9.13;;;2.50;1.00;;;;;;5053518;28;20187;-74
2022/01/27 10:24:26;;;;;;;14.88;7.97;;;2.50;1.00;;;;;;5038598;28;20183;-74
2022/01/27 10:27:21;;;;;;;20.42;8.75;;;2.50;1.00;;;;;;5059151;28;20712;-74
2022/01/27 10:30:05;;;;;;;20.45;9.05;;;2.60;1.00;;;;;;5056171;28;20195;-74
2022/01/27 10:32:44;;;;;;;19.42;8.68;;;2.50;1.00;;;;;;5059980;28;20628;-74
2022/01/27 10:35:12;;;;;;;16.80;8.57;;;2.70;1.00;;;;;;5066310;28;20276;-74
2022/01/27 10:38:04;;;;;;;24.60;8.20;;;2.70;1.00;;;;;;5057747;28;20563;-75
2022/01/27 10:40:36;;;;;;;15.65;8.20;;;2.70;1.00;;;;;;5067895;28;20290;-74
2022/01/27 10:43:05;;;;;;;10.90;6.30;;;2.80;1.00;;;;;;5061064;28;20270;-74
2022/01/27 10:45:31;;;;;;;18.98;8.63;;;2.80;1.00;;;;;;5069953;28;20179;-75
2022/01/27 10:48:24;;;;;;;16.00;7.38;;;2.80;1.00;;;;;;5066021;28;20513;-74
2022/01/27 10:51:15;;;;;;;16.27;8.00;;;2.80;1.00;;;;;;5069656;28;20187;-74
2022/01/27 10:53:49;;;;;;;17.60;7.00;;;2.80;1.00;;;;;;5053771;28;20637;-74
2022/01/27 10:56:24;;;;;;;23.80;8.02;;;2.80;1.00;;;;;;5064406;28;20221;-73
2022/01/27 10:58:51;;;;;;;16.77;8.40;;;2.90;1.00;;;;;;5061085;28;20183;-74
2022/01/27 11:01:47;;;;;;;17.13;7.60;;;2.90;1.00;;;;;;5063715;28;20511;-74
2022/01/27 11:04:14;;;;;;;17.85;8.32;;;3.10;1.00;;;;;;5001972;28;20208;-74
2022/01/27 11:06:57;;;;;;;16.30;7.65;;;3.10;1.00;;;;;;5008892;28;20651;-74
2022/01/27 11:09:24;;;;;;;17.05;7.25;;;3.20;1.00;;;;;;4987890;28;20194;-74
2022/01/27 11:11:52;;;;;;;13.15;6.75;;;3.20;1.00;;;;;;4997481;28;20189;-74
2022/01/27 11:14:19;;;;;;;16.60;7.28;;;3.20;1.00;;;;;;5002424;28;20215;-75
2022/01/27 11:16:47;;;;;;;10.93;6.70;;;3.10;1.00;;;;;;4990428;28;20193;-74
2022/01/27 11:21:42;;;;;;;15.37;7.57;;;3.10;1.00;;;;;;5005289;28;20199;-75
2022/01/27 11:24:25;;;;;;;15.43;6.70;;;3.10;1.00;;;;;;4993120;28;20548;-75
2022/01/27 11:26:54;;;;;;;8.10;4.78;;;3.10;1.00;;;;;;4993835;28;20185;-74
2022/01/27 11:29:21;;;;;;;3.33;3.03;;;3.10;1.00;;;;;;5005704;28;20209;-74
2022/01/27 11:32:16;;;;;;;5.47;3.95;;;3.10;1.00;;;;;;5004725;28;20194;-75
2022/01/27 11:34:53;;;;;;;6.22;3.78;;;3.10;1.00;;;;;;4991961;28;20348;-74
2022/01/27 11:37:36;;;;;;;8.02;4.20;;;3.10;1.00;;;;;;4998873;28;20184;-74
2022/01/27 11:40:08;;;;;;;11.70;6.85;;;3.10;1.00;;;;;;5024746;28;20191;-75
2022/01/27 11:42:41;;;;;;;17.00;7.65;;;3.10;1.00;;;;;;5065319;28;20187;-74
2022/01/27 11:45:48;;;;;;;10.10;5.10;;;3.20;1.00;;;;;;5054633;28;20686;-74
2022/01/27 11:48:17;;;;;;;12.57;5.63;;;3.30;1.00;;;;;;5065924;28;20627;-74
2022/01/27 11:50:59;;;;;;;7.30;4.80;;;3.30;1.00;;;;;;5072193;28;20217;-73
2022/01/27 11:53:34;;;;;;;13.15;5.95;;;3.20;1.00;;;;;;5066198;28;20596;-74
2022/01/27 11:56:04;;;;;;;17.80;5.15;;;3.20;1.00;;;;;;5060792;28;20238;-74
2022/01/27 11:58:40;;;;;;;9.40;5.50;;;3.30;1.00;;;;;;5066869;28;20225;-74
2022/01/27 12:01:18;;;;;;;8.63;5.15;;;3.30;1.00;;;;;;5056655;28;20171;-74
2022/01/27 12:04:02;;;;;;;10.13;5.60;;;3.20;1.00;;;;;;5069232;28;20278;-75
2022/01/27 12:06:48;;;;;;;9.13;4.68;;;3.20;1.00;;;;;;5072679;28;20183;-75
2022/01/27 12:09:20;;;;;;;15.82;7.18;;;3.20;1.00;;;;;;5064274;28;20198;-74
2022/01/27 12:12:24;;;;;;;10.43;5.38;;;3.10;1.00;;;;;;5061297;28;20180;-74
2022/01/27 12:14:55;;;;;;;13.60;6.43;;;3.10;1.00;;;;;;5054215;28;20215;-74
2022/01/27 12:17:22;;;;;;;16.13;7.93;;;3.10;1.00;;;;;;5063468;28;20182;-74
2022/01/27 12:19:48;;;;;;;5.20;3.30;;;;;;;;;;5055138;28;20271;-75
2022/01/27 12:22:15;;;;;;;10.45;5.47;;;3.20;1.00;;;;;;5064791;28;20217;-74
2022/01/27 12:25:00;;;;;;;6.68;4.22;;;3.20;1.00;;;;;;5076105;28;20206;-74
2022/01/27 12:27:28;;;;;;;14.40;5.43;;;3.40;1.00;;;;;;5076305;28;20183;-74
2022/01/27 12:29:56;;;;;;;10.60;6.38;;;3.40;1.00;;;;;;5075985;28;20178;-74
2022/01/27 12:32:30;;;;;;;13.65;5.15;;;3.40;1.00;;;;;;5075981;28;20175;-75
2022/01/27 12:35:08;;;;;;;10.60;5.38;;;3.40;1.00;;;;;;5074796;28;20563;-74
2022/01/27 12:37:43;;;;;;;10.73;4.55;;;3.40;1.00;;;;;;5065215;28;20249;-74
2022/01/27 12:40:14;;;;;;;8.88;4.72;;;3.40;1.00;;;;;;5075782;28;20197;-74
2022/01/27 12:42:48;;;;;;;13.15;4.85;;;3.40;1.00;;;;;;5076222;28;20198;-74
2022/01/27 12:45:14;;;;;;;8.30;5.43;;;3.30;1.00;;;;;;5062377;28;20237;-74
2022/01/27 12:47:47;;;;;;;9.67;4.73;;;3.30;1.00;;;;;;5075572;28;20179;-74
2022/01/27 12:50:15;;;;;;;13.07;5.60;;;3.20;1.00;;;;;;5075515;28;20409;-75
2022/01/27 12:52:43;;;;;;;15.13;6.82;;;3.20;1.00;;;;;;5060394;28;20187;-74
2022/01/27 12:55:13;;;;;;;10.98;4.00;;;3.10;1.00;;;;;;5047549;28;20773;-75
2022/01/27 12:57:40;;;;;;;7.97;4.50;;;3.20;1.00;;;;;;5057094;28;20183;-74
2022/01/27 13:00:08;;;;;;;14.05;5.45;;;3.20;1.00;;;;;;5062554;28;20217;-75
2022/01/27 13:02:34;;;;;;;10.55;5.43;;;3.20;1.00;;;;;;5050185;28;20265;-74
2022/01/27 13:05:01;;;;;;;9.07;4.50;;;3.20;1.00;;;;;;5060400;28;20321;-74
2022/01/27 13:07:28;;;;;;;7.05;4.60;;;3.20;1.00;;;;;;5057998;28;20995;-74
2022/01/27 13:10:06;;;;;;;8.60;5.25;;;3.30;1.00;;;;;;5060277;28;20280;-74
2022/01/27 13:12:50;;;;;;;14.20;4.00;;;3.30;1.00;;;;;;5069297;28;20312;-74
2022/01/27 13:15:22;;;;;;;10.35;5.05;;;3.20;1.00;;;;;;5065979;28;20206;-74
2022/01/27 13:17:54;;;;;;;8.38;4.95;;;3.30;1.00;;;;;;5065284;28;20202;-74
2022/01/27 13:23:34;;;;;;;9.65;5.50;;;3.20;1.00;;;;;;5036606;28;20187;-75
2022/01/27 13:26:05;;;;;;;6.30;4.03;;;3.30;1.00;;;;;;5041974;28;20219;-75
2022/01/27 13:28:34;;;;;;;13.40;6.75;;;3.30;1.00;;;;;;5052367;28;20320;-75
2022/01/27 13:31:04;;;;;;;11.10;5.00;;;3.30;1.00;;;;;;5052310;28;20559;-74
2022/01/27 13:33:37;;;;;;;14.93;6.28;;;3.40;1.00;;;;;;5025673;28;20249;-75
2022/01/27 13:36:07;;;;;;;8.48;3.70;;;3.40;1.00;;;;;;5045913;28;20322;-75
2022/01/27 13:38:50;;;;;;;12.60;5.57;;;3.50;1.00;;;;;;5046343;28;20204;-75
2022/01/27 13:41:18;;;;;;;9.27;5.18;;;3.50;1.00;;;;;;5042980;28;20165;-75
2022/01/27 13:43:50;;;;;;;17.98;7.28;;;3.50;1.00;;;;;;5032906;28;20177;-74
2022/01/27 13:46:36;;;;;;;8.82;4.80;;;3.50;1.00;;;;;;5032380;28;20196;-75
2022/01/27 13:49:22;;;;;;;8.90;4.57;;;3.40;1.00;;;;;;5050664;28;20194;-75
2022/01/27 13:52:00;;;;;;;10.95;6.38;;;3.30;1.00;;;;;;5051476;28;20267;-74
2022/01/27 13:54:36;;;;;;;17.90;6.20;;;3.30;1.00;;;;;;5052181;28;20264;-77
2022/01/27 13:57:14;;;;;;;14.40;5.93;;;3.30;1.00;;;;;;5040190;28;20221;-77
2022/01/27 13:59:55;;;;;;;6.15;1.77;;;3.30;1.00;;;;;;5065505;28;20191;-76
2022/01/27 14:02:29;;;;;;;13.43;5.50;;;3.30;1.00;;;;;;5074096;28;20509;-72
2022/01/27 14:05:00;;;;;;;11.23;6.03;;;3.20;1.00;;;;;;5073153;28;20668;-74
2022/01/27 14:07:29;;;;;;;12.85;6.20;;;3.20;1.00;;;;;;5066309;28;20232;-73
2022/01/27 14:09:56;;;;;;;11.88;5.70;;;3.30;1.00;;;;;;5060628;28;20189;-74
2022/01/27 14:12:30;;;;;;;18.35;7.15;;;3.30;1.00;;;;;;5073807;28;20190;-73